createdAt,value
2022-10-09T00:02:03.991Z,100.00
2022-10-09T00:04:49.014Z,100.00
2022-10-09T00:07:34.390Z,100.00
2022-10-09T00:10:20.207Z,100.00
2022-10-09T00:13:06.049Z,100.00
2022-10-09T00:15:51.018Z,100.00
2022-10-09T00:18:36.089Z,100.00
2022-10-09T00:21:29.963Z,100.00
2022-10-09T00:24:15.314Z,100.00
2022-10-09T00:27:00.484Z,100.00
2022-10-09T00:29:45.448Z,100.00
2022-10-09T00:32:30.481Z,100.00
2022-10-09T00:35:15.787Z,100.00
2022-10-09T00:38:00.583Z,100.00
2022-10-09T00:40:45.851Z,100.00
2022-10-09T00:43:54.420Z,100.00
2022-10-09T00:46:45.934Z,100.00
2022-10-09T00:49:33.964Z,100.00
2022-10-09T00:52:21.409Z,100.00
2022-10-09T00:55:08.037Z,100.00
2022-10-09T00:57:56.065Z,100.00
2022-10-09T01:00:41.416Z,100.00
2022-10-09T01:03:26.635Z,100.00
2022-10-09T01:06:20.840Z,100.00
2022-10-09T01:09:16.230Z,100.00
2022-10-09T01:12:09.486Z,100.00
2022-10-09T01:15:19.155Z,100.00
2022-10-09T01:18:42.715Z,100.00
2022-10-09T01:22:03.039Z,100.00
2022-10-09T01:25:11.981Z,100.00
2022-10-09T01:27:57.214Z,100.00
2022-10-09T01:30:42.779Z,100.00
2022-10-09T01:33:30.297Z,100.00
2022-10-09T01:36:17.006Z,100.00
2022-10-09T01:39:04.931Z,100.00
2022-10-09T01:41:51.984Z,100.00
2022-10-09T01:44:37.102Z,100.00
2022-10-09T01:47:22.185Z,100.00
2022-10-09T01:50:27.310Z,100.00
2022-10-09T01:53:18.442Z,100.00
2022-10-09T01:56:09.243Z,100.00
2022-10-09T01:59:02.080Z,100.00
2022-10-09T02:01:48.166Z,100.00
2022-10-09T02:04:36.913Z,100.00
2022-10-09T02:07:24.876Z,100.00
2022-10-09T02:10:10.816Z,100.00
2022-10-09T02:12:58.894Z,100.00
2022-10-09T02:15:49.339Z,100.00
2022-10-09T02:18:44.601Z,100.00
2022-10-09T02:21:39.630Z,100.00
2022-10-09T02:24:25.429Z,100.00
2022-10-09T02:27:12.181Z,100.00
2022-10-09T02:29:59.397Z,100.00
2022-10-09T02:32:47.261Z,100.00
2022-10-09T02:35:33.141Z,100.00
2022-10-09T02:38:17.985Z,100.00
2022-10-09T02:41:03.353Z,100.00
2022-10-09T02:43:48.051Z,100.00
2022-10-09T02:46:33.905Z,100.00
2022-10-09T02:49:19.219Z,100.00
2022-10-09T02:52:04.529Z,100.00
2022-10-09T02:54:49.948Z,100.00
2022-10-09T02:57:34.751Z,100.00
2022-10-09T03:00:19.622Z,100.00
2022-10-09T03:03:04.541Z,100.00
2022-10-09T03:05:59.875Z,100.00
2022-10-09T03:08:47.345Z,100.00
2022-10-09T03:11:32.948Z,100.00
2022-10-09T03:14:18.212Z,100.00
2022-10-09T03:17:03.040Z,100.00
2022-10-09T03:19:48.052Z,100.00
2022-10-09T03:22:33.205Z,100.00
2022-10-09T03:25:18.713Z,100.00
2022-10-09T03:28:04.749Z,100.00
2022-10-09T03:30:50.095Z,100.00
2022-10-09T03:33:36.068Z,100.00
2022-10-09T03:36:20.791Z,100.00
2022-10-09T03:39:05.642Z,100.00
2022-10-09T03:41:50.578Z,100.00
2022-10-09T03:44:35.369Z,100.00
2022-10-09T03:47:20.307Z,100.00
2022-10-09T03:50:06.210Z,100.00
2022-10-09T03:52:52.084Z,100.00
2022-10-09T03:55:37.547Z,100.00
2022-10-09T03:58:22.797Z,100.00
2022-10-09T04:01:07.743Z,100.00
2022-10-09T04:03:53.040Z,100.00
2022-10-09T04:06:37.956Z,100.00
2022-10-09T04:09:22.796Z,100.00
2022-10-09T04:12:07.880Z,100.00
2022-10-09T04:14:52.809Z,100.00
2022-10-09T04:17:37.776Z,100.00
2022-10-09T04:20:22.732Z,100.00
2022-10-09T04:23:08.081Z,100.00
2022-10-09T04:25:54.358Z,100.00
2022-10-09T04:28:39.989Z,100.00
2022-10-09T04:31:25.156Z,100.00
2022-10-09T04:34:10.270Z,100.00
2022-10-09T04:36:55.562Z,100.00
2022-10-09T04:39:40.516Z,100.00
2022-10-09T04:42:25.735Z,100.00
2022-10-09T04:45:11.321Z,100.00
2022-10-09T04:47:56.289Z,100.00
2022-10-09T04:50:41.055Z,100.00
2022-10-09T04:53:25.815Z,100.00
2022-10-09T04:56:16.012Z,100.00
2022-10-09T04:59:01.223Z,100.00
2022-10-09T05:01:46.145Z,100.00
2022-10-09T05:04:31.539Z,100.00
2022-10-09T05:07:16.654Z,100.00
2022-10-09T05:10:02.074Z,100.00
2022-10-09T05:12:47.201Z,100.00
2022-10-09T05:15:36.504Z,100.00
2022-10-09T05:18:21.579Z,100.00
2022-10-09T05:21:06.656Z,100.00
2022-10-09T05:23:53.991Z,100.00
2022-10-09T05:26:39.295Z,100.00
2022-10-09T05:29:24.376Z,100.00
2022-10-09T05:32:09.533Z,100.00
2022-10-09T05:34:54.919Z,100.00
2022-10-09T05:37:39.863Z,100.00
2022-10-09T05:40:29.091Z,100.00
2022-10-09T05:43:14.114Z,100.00
2022-10-09T05:46:10.983Z,100.00
2022-10-09T05:49:01.529Z,100.00
2022-10-09T05:51:46.477Z,100.00
2022-10-09T05:54:31.569Z,100.00
2022-10-09T05:57:16.307Z,100.00
2022-10-09T06:00:01.448Z,100.00
2022-10-09T06:02:47.143Z,100.00
2022-10-09T06:05:32.513Z,100.00
2022-10-09T06:08:17.502Z,100.00
2022-10-09T06:11:32.668Z,100.00
2022-10-09T06:14:17.979Z,100.00
2022-10-09T06:17:03.028Z,100.00
2022-10-09T06:19:47.900Z,100.00
2022-10-09T06:22:32.757Z,100.00
2022-10-09T06:25:17.777Z,100.00
2022-10-09T06:28:03.479Z,100.00
2022-10-09T06:30:49.298Z,100.00
2022-10-09T06:33:36.411Z,100.00
2022-10-09T06:36:24.252Z,100.00
2022-10-09T06:39:10.449Z,100.00
2022-10-09T06:41:55.398Z,100.00
2022-10-09T06:44:40.155Z,100.00
2022-10-09T06:47:25.018Z,100.00
2022-10-09T06:50:10.014Z,100.00
2022-10-09T06:52:55.226Z,100.00
2022-10-09T06:55:40.575Z,97.48
2022-10-09T06:58:26.463Z,96.80
2022-10-09T07:01:18.567Z,95.94
2022-10-09T07:04:06.596Z,95.26
2022-10-09T07:06:51.848Z,94.83
2022-10-09T07:09:36.911Z,96.04
2022-10-09T07:12:22.055Z,96.87
2022-10-09T07:15:07.848Z,99.17
2022-10-09T07:17:52.735Z,100.00
2022-10-09T07:20:37.532Z,100.00
2022-10-09T07:23:22.385Z,100.00
2022-10-09T07:26:16.413Z,100.00
2022-10-09T07:29:01.747Z,100.00
2022-10-09T07:31:47.236Z,100.00
2022-10-09T07:34:32.524Z,100.00
2022-10-09T07:37:17.545Z,100.00
2022-10-09T07:40:02.618Z,100.00
2022-10-09T07:42:48.211Z,100.00
2022-10-09T07:45:35.199Z,100.00
2022-10-09T07:48:20.678Z,100.00
2022-10-09T07:51:09.330Z,100.00
2022-10-09T07:53:54.725Z,100.00
2022-10-09T07:56:39.850Z,100.00
2022-10-09T07:59:24.711Z,100.00
2022-10-09T08:02:09.813Z,100.00
2022-10-09T08:04:55.081Z,100.00
2022-10-09T08:07:40.039Z,100.00
2022-10-09T08:10:25.412Z,98.58
2022-10-09T08:13:10.516Z,96.09
2022-10-09T08:15:57.814Z,96.34
2022-10-09T08:18:43.022Z,97.80
2022-10-09T08:21:29.096Z,96.50
2022-10-09T08:24:14.396Z,95.23
2022-10-09T08:26:59.234Z,96.19
2022-10-09T08:29:44.028Z,95.82
2022-10-09T08:32:28.924Z,95.92
2022-10-09T08:35:13.851Z,96.68
2022-10-09T08:37:59.291Z,97.51
2022-10-09T08:41:03.599Z,98.94
2022-10-09T08:44:00.539Z,98.97
2022-10-09T08:47:00.944Z,100.00
2022-10-09T08:50:16.748Z,100.00
2022-10-09T08:53:01.804Z,99.15
2022-10-09T08:55:50.909Z,97.25
2022-10-09T08:58:38.842Z,97.58
2022-10-09T09:01:37.997Z,97.36
2022-10-09T09:04:41.884Z,96.62
2022-10-09T09:07:36.176Z,95.58
2022-10-09T09:10:31.138Z,93.50
2022-10-09T09:13:19.262Z,93.91
2022-10-09T09:16:42.342Z,91.99
2022-10-09T09:19:59.629Z,91.04
2022-10-09T09:22:49.465Z,91.13
2022-10-09T09:25:39.601Z,91.17
2022-10-09T09:28:28.588Z,90.82
2022-10-09T09:31:13.434Z,90.01
2022-10-09T09:34:14.880Z,90.46
2022-10-09T09:37:00.518Z,90.58
2022-10-09T09:42:51.228Z,89.20
2022-10-09T09:45:36.747Z,89.30
2022-10-09T09:48:30.377Z,87.73
2022-10-09T09:51:30.021Z,88.78
2022-10-09T09:54:26.726Z,87.70
2022-10-09T09:57:15.806Z,87.45
2022-10-09T10:00:09.937Z,87.34
2022-10-09T10:03:12.664Z,87.08
2022-10-09T10:05:58.036Z,84.83
2022-10-09T10:08:45.439Z,83.56
2022-10-09T10:11:32.867Z,83.47
2022-10-09T10:14:18.032Z,82.94
2022-10-09T10:17:03.114Z,81.44
2022-10-09T10:19:50.693Z,80.69
2022-10-09T10:22:36.129Z,79.92
2022-10-09T10:25:25.844Z,81.00
2022-10-09T10:28:18.731Z,81.39
2022-10-09T10:31:10.065Z,78.71
2022-10-09T10:33:57.194Z,78.72
2022-10-09T10:36:42.344Z,78.99
2022-10-09T10:39:37.206Z,79.54
2022-10-09T10:42:36.368Z,78.79
2022-10-09T10:45:47.857Z,78.08
2022-10-09T10:48:46.091Z,75.48
2022-10-09T10:51:47.156Z,74.97
2022-10-09T10:55:11.878Z,74.92
2022-10-09T10:58:39.463Z,73.30
2022-10-09T11:01:37.182Z,73.93
2022-10-09T11:04:41.250Z,74.27
2022-10-09T11:07:41.770Z,74.17
2022-10-09T11:10:54.998Z,73.16
2022-10-09T11:13:57.658Z,73.51
2022-10-09T11:16:51.018Z,72.00
2022-10-09T11:20:10.725Z,69.18
2022-10-09T11:23:17.801Z,69.26
2022-10-09T11:26:28.945Z,69.41
2022-10-09T11:29:23.566Z,67.78
2022-10-09T11:33:01.293Z,68.45
2022-10-09T11:35:58.630Z,65.17
2022-10-09T11:38:48.611Z,63.44
2022-10-09T11:41:35.830Z,63.99
2022-10-09T11:44:46.143Z,63.44
2022-10-09T11:47:57.189Z,65.87
2022-10-09T11:50:56.274Z,64.37
2022-10-09T11:53:43.355Z,65.79
2022-10-09T11:56:31.238Z,63.09
2022-10-09T11:59:23.185Z,63.12
2022-10-09T12:02:30.498Z,65.68
2022-10-09T12:05:18.733Z,64.93
2022-10-09T12:08:15.451Z,64.62
2022-10-09T12:11:12.042Z,64.23
2022-10-09T12:14:06.389Z,65.01
2022-10-09T12:16:51.437Z,66.30
2022-10-09T12:19:40.213Z,64.31
2022-10-09T12:22:30.306Z,63.45
2022-10-09T12:25:41.926Z,62.96
2022-10-09T12:28:43.261Z,62.26
2022-10-09T12:31:36.510Z,61.05
2022-10-09T12:34:30.882Z,60.59
2022-10-09T12:37:21.618Z,61.57
2022-10-09T12:40:15.266Z,61.41
2022-10-09T12:43:07.461Z,60.80
2022-10-09T12:45:53.910Z,58.57
2022-10-09T12:48:41.718Z,56.75
2022-10-09T12:51:30.013Z,56.28
2022-10-09T12:54:15.073Z,53.62
2022-10-09T12:57:00.942Z,53.96
2022-10-09T12:59:48.204Z,54.06
2022-10-09T13:02:33.467Z,52.46
2022-10-09T13:05:18.666Z,51.78
2022-10-09T13:08:04.288Z,50.96
2022-10-09T13:10:49.247Z,49.95
2022-10-09T13:13:34.619Z,49.61
2022-10-09T13:16:22.096Z,47.87
2022-10-09T13:19:26.821Z,49.47
2022-10-09T13:22:12.597Z,50.80
2022-10-09T13:24:59.341Z,50.39
2022-10-09T13:27:44.445Z,51.47
2022-10-09T13:30:29.993Z,53.65
2022-10-09T13:33:16.709Z,52.96
2022-10-09T13:36:01.927Z,56.82
2022-10-09T13:38:48.944Z,56.35
2022-10-09T13:41:35.290Z,56.67
2022-10-09T13:44:20.471Z,56.30
2022-10-09T13:47:05.826Z,58.04
2022-10-09T13:49:51.195Z,57.25
2022-10-09T13:52:36.447Z,57.91
2022-10-09T13:55:21.574Z,57.42
2022-10-09T13:58:06.554Z,56.80
2022-10-09T14:00:51.415Z,57.05
2022-10-09T14:03:36.667Z,57.61
2022-10-09T14:06:22.028Z,56.87
2022-10-09T14:09:07.336Z,56.77
2022-10-09T14:11:52.907Z,57.40
2022-10-09T14:14:37.772Z,57.78
2022-10-09T14:17:22.716Z,57.43
2022-10-09T14:20:08.328Z,56.38
2022-10-09T14:22:53.183Z,56.00
2022-10-09T14:25:38.157Z,57.76
2022-10-09T14:28:23.082Z,57.40
2022-10-09T14:31:08.500Z,55.78
2022-10-09T14:33:57.077Z,56.29
2022-10-09T14:36:42.396Z,57.00
2022-10-09T14:39:27.371Z,56.61
2022-10-09T14:42:12.345Z,56.27
2022-10-09T14:44:57.569Z,56.42
2022-10-09T14:47:42.450Z,56.93
2022-10-09T14:50:27.544Z,56.80
2022-10-09T14:53:12.489Z,55.75
2022-10-09T14:56:00.312Z,55.88
2022-10-09T14:58:45.714Z,56.57
2022-10-09T15:01:30.816Z,57.89
2022-10-09T15:04:16.103Z,57.88
2022-10-09T15:07:01.422Z,58.30
2022-10-09T15:09:46.362Z,57.49
2022-10-09T15:12:31.838Z,57.92
2022-10-09T15:15:16.916Z,57.92
2022-10-09T15:18:02.220Z,57.64
2022-10-09T15:20:47.162Z,57.04
2022-10-09T15:23:32.162Z,57.11
2022-10-09T15:26:17.152Z,55.73
2022-10-09T15:29:05.784Z,55.78
2022-10-09T15:31:51.118Z,55.22
2022-10-09T15:34:40.667Z,54.73
2022-10-09T15:37:26.225Z,53.69
2022-10-09T15:40:11.335Z,54.59
2022-10-09T15:42:56.272Z,52.64
2022-10-09T15:45:41.708Z,50.60
2022-10-09T15:48:26.877Z,51.82
2022-10-09T15:51:12.810Z,51.45
2022-10-09T15:53:59.134Z,50.81
2022-10-09T15:56:43.904Z,51.66
2022-10-09T15:59:28.834Z,52.28
2022-10-09T16:02:13.943Z,52.21
2022-10-09T16:04:59.128Z,52.58
2022-10-09T16:07:44.576Z,53.95
2022-10-09T16:10:29.780Z,55.96
2022-10-09T16:13:15.085Z,57.49
2022-10-09T16:16:04.629Z,57.01
2022-10-09T16:18:50.969Z,58.42
2022-10-09T16:21:36.223Z,59.06
2022-10-09T16:24:21.190Z,58.45
2022-10-09T16:27:06.334Z,59.92
2022-10-09T16:29:51.632Z,61.08
2022-10-09T16:32:36.541Z,60.71
2022-10-09T16:35:22.421Z,61.00
2022-10-09T16:38:07.511Z,62.26
2022-10-09T16:41:07.867Z,62.11
2022-10-09T16:43:55.537Z,62.87
2022-10-09T16:46:40.751Z,63.52
2022-10-09T16:49:26.046Z,63.46
2022-10-09T16:52:11.293Z,63.87
2022-10-09T16:55:00.149Z,64.52
2022-10-09T16:57:45.557Z,65.39
2022-10-09T17:00:30.664Z,65.83
2022-10-09T17:03:16.071Z,66.05
2022-10-09T17:06:01.264Z,66.41
2022-10-09T17:08:47.206Z,66.95
2022-10-09T17:11:32.302Z,67.43
2022-10-09T17:14:17.559Z,68.11
2022-10-09T17:17:04.273Z,68.38
2022-10-09T17:19:52.413Z,68.74
2022-10-09T17:22:37.263Z,69.31
2022-10-09T17:25:22.275Z,68.89
2022-10-09T17:28:08.141Z,69.90
2022-10-09T17:30:53.463Z,70.56
2022-10-09T17:33:38.988Z,70.68
2022-10-09T17:36:26.433Z,70.82
2022-10-09T17:39:14.598Z,71.68
2022-10-09T17:41:59.810Z,72.13
2022-10-09T17:44:44.585Z,72.55
2022-10-09T17:47:29.650Z,72.93
2022-10-09T17:50:14.930Z,72.79
2022-10-09T17:53:00.799Z,73.12
2022-10-09T17:55:45.751Z,73.73
2022-10-09T17:58:30.559Z,73.76
2022-10-09T18:01:17.179Z,73.84
2022-10-09T18:04:03.249Z,74.91
2022-10-09T18:06:49.231Z,74.97
2022-10-09T18:09:34.590Z,75.45
2022-10-09T18:12:19.557Z,75.54
2022-10-09T18:15:05.028Z,75.55
2022-10-09T18:17:50.453Z,75.96
2022-10-09T18:20:37.485Z,75.95
2022-10-09T18:23:23.029Z,76.62
2022-10-09T18:26:10.715Z,76.57
2022-10-09T18:28:55.803Z,76.23
2022-10-09T18:31:41.025Z,76.65
2022-10-09T18:34:26.481Z,77.18
2022-10-09T18:37:11.617Z,77.61
2022-10-09T18:39:56.807Z,77.46
2022-10-09T18:42:41.696Z,77.63
2022-10-09T18:45:26.823Z,78.20
2022-10-09T18:48:12.169Z,77.96
2022-10-09T18:50:58.650Z,78.70
2022-10-09T18:53:48.541Z,78.94
2022-10-09T18:56:35.599Z,79.00
2022-10-09T18:59:23.050Z,79.47
2022-10-09T19:02:08.098Z,79.76
2022-10-09T19:04:55.770Z,80.04
2022-10-09T19:07:40.953Z,80.24
2022-10-09T19:10:26.243Z,80.58
2022-10-09T19:13:11.157Z,80.57
2022-10-09T19:15:57.944Z,80.39
2022-10-09T19:18:43.321Z,81.04
2022-10-09T19:21:28.634Z,80.85
2022-10-09T19:24:13.610Z,81.58
2022-10-09T19:26:59.127Z,81.21
2022-10-09T19:29:44.304Z,81.44
2022-10-09T19:32:29.533Z,82.16
2022-10-09T19:35:14.899Z,81.97
2022-10-09T19:37:59.710Z,82.28
2022-10-09T19:40:45.515Z,82.64
2022-10-09T19:43:30.466Z,83.07
2022-10-09T19:46:18.855Z,83.03
2022-10-09T19:49:04.704Z,82.96
2022-10-09T19:51:49.664Z,84.14
2022-10-09T19:54:35.684Z,84.06
2022-10-09T19:57:20.922Z,84.33
2022-10-09T20:00:07.178Z,84.65
2022-10-09T20:02:52.812Z,84.85
2022-10-09T20:05:38.744Z,85.64
2022-10-09T20:08:23.647Z,85.69
2022-10-09T20:11:09.141Z,85.73
2022-10-09T20:13:56.310Z,85.35
2022-10-09T20:16:41.889Z,85.64
2022-10-09T20:19:26.830Z,85.68
2022-10-09T20:22:11.613Z,85.96
2022-10-09T20:24:56.533Z,86.49
2022-10-09T20:27:41.528Z,86.66
2022-10-09T20:30:26.555Z,86.49
2022-10-09T20:33:11.338Z,86.95
2022-10-09T20:35:56.349Z,86.84
2022-10-09T20:38:41.669Z,86.97
2022-10-09T20:41:28.929Z,87.28
2022-10-09T20:44:14.481Z,87.95
2022-10-09T20:46:59.300Z,88.14
2022-10-09T20:49:44.330Z,88.39
2022-10-09T20:52:29.105Z,87.98
2022-10-09T20:55:13.985Z,88.86
2022-10-09T20:57:58.935Z,89.48
2022-10-09T21:00:44.257Z,89.80
2022-10-09T21:03:29.222Z,90.19
2022-10-09T21:06:16.625Z,90.32
2022-10-09T21:09:02.257Z,89.74
2022-10-09T21:11:47.295Z,89.46
2022-10-09T21:14:32.625Z,89.62
2022-10-09T21:17:17.382Z,89.55
2022-10-09T21:20:02.273Z,89.44
2022-10-09T21:22:47.329Z,90.34
2022-10-09T21:25:33.169Z,89.49
2022-10-09T21:28:22.372Z,89.29
2022-10-09T21:31:09.488Z,89.71
2022-10-09T21:33:54.830Z,90.08
2022-10-09T21:37:19.853Z,89.96
2022-10-09T21:39:54.750Z,90.57
2022-10-09T21:42:39.644Z,91.57
2022-10-09T21:45:24.543Z,91.33
2022-10-09T21:48:15.327Z,91.33
2022-10-09T21:51:00.603Z,91.79
2022-10-09T21:53:45.844Z,91.13
2022-10-09T21:56:30.933Z,91.82
2022-10-09T21:59:16.004Z,92.00
2022-10-09T22:02:01.212Z,92.49
2022-10-09T22:04:46.185Z,92.98
2022-10-09T22:07:31.488Z,93.08
2022-10-09T22:10:16.465Z,92.93
2022-10-09T22:13:01.867Z,92.82
2022-10-09T22:15:50.934Z,92.57
2022-10-09T22:18:36.961Z,92.08
2022-10-09T22:21:22.088Z,91.81
2022-10-09T22:24:07.114Z,91.73
2022-10-09T22:26:52.145Z,91.78
2022-10-09T22:29:36.931Z,91.82
2022-10-09T22:32:22.213Z,91.60
2022-10-09T22:35:07.881Z,91.36
2022-10-09T22:37:53.489Z,91.16
2022-10-09T22:40:38.447Z,91.64
2022-10-09T22:43:23.745Z,91.28
2022-10-09T22:46:12.745Z,91.43
2022-10-09T22:48:58.284Z,90.71
2022-10-09T22:51:44.425Z,90.47
2022-10-09T22:54:29.659Z,90.85
2022-10-09T22:57:14.699Z,90.65
2022-10-09T22:59:59.492Z,90.66
2022-10-09T23:02:44.266Z,90.78
2022-10-09T23:05:29.006Z,91.35
2022-10-09T23:08:13.740Z,91.08
2022-10-09T23:10:59.042Z,91.02
2022-10-09T23:13:45.032Z,90.99
2022-10-09T23:16:30.428Z,91.13
2022-10-09T23:19:15.743Z,91.19
2022-10-09T23:22:00.842Z,91.43
2022-10-09T23:24:46.087Z,91.30
2022-10-09T23:27:31.555Z,91.11
2022-10-09T23:30:16.502Z,90.99
2022-10-09T23:33:01.414Z,91.22
2022-10-09T23:35:46.306Z,90.97
2022-10-09T23:38:31.786Z,90.63
2022-10-09T23:41:19.620Z,90.70
2022-10-09T23:44:05.230Z,90.47
2022-10-09T23:46:50.421Z,90.47
2022-10-09T23:49:36.497Z,90.22
2022-10-09T23:52:21.753Z,90.65
2022-10-09T23:55:07.008Z,90.92
2022-10-09T23:57:51.932Z,90.64
